Time;durP1;ratioP1;P1;durP2;ratioP2;P2;SDS_P1;SDS_P2;PMS_P1;PMS_P2;Temp;Humidity;BMP_temperature;BMP_pressure;BME280_temperature;BME280_humidity;BME280_pressure;Samples;Min_cycle;Max_cycle;Signal;HPM_P1;HPM_P2
2021/05/05 00:02:24;;;;;;;11.38;5.10;;;;;;;;;;5120507;28;20040;-81
2021/05/05 00:04:50;;;;;;;9.73;5.22;;;;;;;;;;5120066;28;20023;-82
2021/05/05 00:07:16;;;;;;;9.10;5.07;;;;;;;;;;5120078;28;20397;-81
2021/05/05 00:09:42;;;;;;;8.82;4.93;;;;;;;;;;5119926;28;20037;-81
2021/05/05 00:12:09;;;;;;;7.28;5.13;;;;;;;;;;5119887;28;20028;-81
2021/05/05 00:14:35;;;;;;;7.03;4.97;;;;;;;;;;5120174;28;20047;-81
2021/05/05 00:17:01;;;;;;;9.80;4.85;;;;;;;;;;5119976;28;20019;-81
2021/05/05 00:19:27;;;;;;;9.02;5.20;;;;;;;;;;5119821;28;20108;-81
2021/05/05 00:21:53;;;;;;;10.32;5.70;;;;;;;;;;5119695;27;20028;-81
2021/05/05 00:24:20;;;;;;;11.25;6.57;;;;;;;;;;5120004;28;20351;-81
2021/05/05 00:26:46;;;;;;;9.57;5.72;;;;;;;;;;5119763;28;20048;-81
2021/05/05 00:29:12;;;;;;;10.30;5.97;;;;;;;;;;5119722;28;20032;-81
2021/05/05 00:31:38;;;;;;;8.60;6.55;;;;;;;;;;5118676;28;20024;-81
2021/05/05 00:34:04;;;;;;;11.38;6.60;;;;;;;;;;5119540;28;20463;-81
2021/05/05 00:36:31;;;;;;;11.65;7.75;;;;;;;;;;5119468;28;20024;-81
2021/05/05 00:38:57;;;;;;;10.25;7.55;;;;;;;;;;5119650;28;20317;-82
2021/05/05 00:41:23;;;;;;;12.30;7.78;;;;;;;;;;5119530;28;20103;-81
2021/05/05 00:43:49;;;;;;;11.98;7.20;;;;;;;;;;5119405;28;20520;-81
2021/05/05 00:46:15;;;;;;;10.07;7.38;;;;;;;;;;5119411;28;20028;-81
2021/05/05 00:48:41;;;;;;;11.05;8.02;;;;;;;;;;5119046;28;20030;-81
2021/05/05 00:51:07;;;;;;;12.00;7.15;;;;;;;;;;5118277;28;20048;-81
2021/05/05 00:53:34;;;;;;;13.63;6.78;;;;;;;;;;5119226;28;20063;-81
2021/05/05 00:56:01;;;;;;;13.10;7.10;;;;;;;;;;5119151;28;20035;-82
2021/05/05 00:58:27;;;;;;;8.60;6.35;;;;;;;;;;5118028;28;20186;-81
2021/05/05 01:00:53;;;;;;;13.32;6.35;;;;;;;;;;5119036;28;20457;-83
2021/05/05 01:03:20;;;;;;;10.48;6.72;;;;;;;;;;5118377;28;20028;-83
2021/05/05 01:05:46;;;;;;;10.15;6.13;;;;;;;;;;5118171;28;20032;-82
2021/05/05 01:08:15;;;;;;;8.95;6.03;;;;;;;;;;5118692;28;20024;-82
2021/05/05 01:10:42;;;;;;;9.75;6.07;;;;;;;;;;5118954;28;20027;-82
2021/05/05 01:13:08;;;;;;;12.60;6.82;;;;;;;;;;5117839;28;20417;-82
2021/05/05 01:15:34;;;;;;;10.27;6.78;;;;;;;;;;5117829;28;20035;-82
2021/05/05 01:18:00;;;;;;;11.05;6.82;;;;;;;;;;5117700;28;20106;-82
2021/05/05 01:20:28;;;;;;;11.50;6.20;;;;;;;;;;5119017;28;20354;-83
2021/05/05 01:22:54;;;;;;;14.38;6.95;;;;;;;;;;5117486;28;20031;-84
2021/05/05 01:25:20;;;;;;;12.50;6.03;;;;;;;;;;5118810;28;20027;-83
2021/05/05 01:27:46;;;;;;;11.35;6.25;;;;;;;;;;5118850;28;20020;-83
2021/05/05 01:30:14;;;;;;;10.68;6.60;;;;;;;;;;5118754;28;20332;-82
2021/05/05 01:32:40;;;;;;;9.88;6.25;;;;;;;;;;5118820;28;20031;-83
2021/05/05 01:35:07;;;;;;;10.15;6.43;;;;;;;;;;5118703;28;20026;-82
2021/05/05 01:37:34;;;;;;;11.70;5.75;;;;;;;;;;5118659;28;20016;-82
2021/05/05 01:40:00;;;;;;;7.75;5.70;;;;;;;;;;5118532;28;20042;-82
2021/05/05 01:42:26;;;;;;;11.52;6.18;;;;;;;;;;5117375;28;20348;-83
2021/05/05 01:44:52;;;;;;;8.85;6.22;;;;;;;;;;5117477;28;20388;-83
2021/05/05 01:47:18;;;;;;;11.95;6.47;;;;;;;;;;5118604;28;20023;-83
2021/05/05 01:49:45;;;;;;;11.93;6.78;;;;;;;;;;5118433;28;20024;-83
2021/05/05 01:52:11;;;;;;;9.98;6.43;;;;;;;;;;5117352;27;20389;-82
2021/05/05 01:54:37;;;;;;;10.73;6.78;;;;;;;;;;5117112;28;20035;-83
2021/05/05 01:57:19;;;;;;;9.85;6.95;;;;;;;;;;5118105;28;20114;-81
2021/05/05 01:59:45;;;;;;;10.10;6.63;;;;;;;;;;5117988;28;20078;-82
2021/05/05 02:02:11;;;;;;;11.35;6.82;;;;;;;;;;5117993;28;20240;-81
2021/05/05 02:04:37;;;;;;;11.13;6.88;;;;;;;;;;5117085;28;20031;-80
2021/05/05 02:07:03;;;;;;;10.68;7.03;;;;;;;;;;5117434;28;20026;-80
2021/05/05 02:09:29;;;;;;;9.77;6.38;;;;;;;;;;5116711;28;20031;-81
2021/05/05 02:11:55;;;;;;;10.07;5.75;;;;;;;;;;5117876;28;20027;-81
2021/05/05 02:14:21;;;;;;;7.97;5.60;;;;;;;;;;5117732;28;20035;-81
2021/05/05 02:16:47;;;;;;;8.40;5.55;;;;;;;;;;5116549;28;20023;-81
2021/05/05 02:19:17;;;;;;;9.23;5.30;;;;;;;;;;5117581;28;20448;-82
2021/05/05 02:21:43;;;;;;;14.70;5.30;;;;;;;;;;5116896;27;20031;-81
2021/05/05 02:24:09;;;;;;;25.85;7.00;;;;;;;;;;5117716;28;20044;-83
2021/05/05 02:26:35;;;;;;;15.40;6.10;;;;;;;;;;5117785;28;20020;-83
2021/05/05 02:29:01;;;;;;;19.60;7.75;;;;;;;;;;5117750;28;20024;-83
2021/05/05 02:31:27;;;;;;;15.75;6.25;;;;;;;;;;5117444;28;20042;-82
2021/05/05 02:33:53;;;;;;;16.45;6.28;;;;;;;;;;5117826;28;20035;-83
2021/05/05 02:36:19;;;;;;;13.77;5.78;;;;;;;;;;5117909;28;20145;-83
2021/05/05 02:38:45;;;;;;;14.50;6.25;;;;;;;;;;5117868;28;20024;-83
2021/05/05 02:41:11;;;;;;;13.07;5.93;;;;;;;;;;5117691;28;20012;-82
2021/05/05 02:43:37;;;;;;;12.35;6.60;;;;;;;;;;5117577;28;20429;-82
2021/05/05 02:46:03;;;;;;;8.80;6.22;;;;;;;;;;5117508;28;20398;-82
2021/05/05 02:48:30;;;;;;;13.90;6.93;;;;;;;;;;5117590;28;20492;-82
2021/05/05 02:50:56;;;;;;;10.18;7.25;;;;;;;;;;5117638;28;20032;-82
2021/05/05 02:53:22;;;;;;;14.93;7.65;;;;;;;;;;5117563;28;20030;-82
2021/05/05 02:55:48;;;;;;;17.17;6.82;;;;;;;;;;5117481;28;20028;-82
2021/05/05 02:58:14;;;;;;;11.93;7.47;;;;;;;;;;5117424;28;20023;-82
2021/05/05 03:00:40;;;;;;;14.43;7.20;;;;;;;;;;5117469;28;20107;-82
2021/05/05 03:03:06;;;;;;;13.52;7.05;;;;;;;;;;5117283;28;20016;-82
2021/05/05 03:05:32;;;;;;;19.48;8.30;;;;;;;;;;5117282;28;20523;-82
2021/05/05 03:07:58;;;;;;;23.50;10.20;;;;;;;;;;5117388;28;20050;-82
2021/05/05 03:10:24;;;;;;;20.38;9.50;;;;;;;;;;5117308;28;20022;-82
2021/05/05 03:12:50;;;;;;;16.75;10.60;;;;;;;;;;5117492;28;20115;-82
2021/05/05 03:15:16;;;;;;;16.70;9.95;;;;;;;;;;5116074;28;20032;-82
2021/05/05 03:17:42;;;;;;;17.17;9.90;;;;;;;;;;5117168;28;20024;-82
2021/05/05 03:20:09;;;;;;;18.50;9.90;;;;;;;;;;5116156;28;20043;-82
2021/05/05 03:22:36;;;;;;;15.23;9.05;;;;;;;;;;5117248;28;20040;-82
2021/05/05 03:25:03;;;;;;;17.20;8.75;;;;;;;;;;5117033;28;20024;-81
2021/05/05 03:27:29;;;;;;;21.25;7.65;;;;;;;;;;5116903;28;20043;-81
2021/05/05 03:29:55;;;;;;;26.45;9.10;;;;;;;;;;5116990;28;20034;-80
2021/05/05 03:32:21;;;;;;;16.80;8.45;;;;;;;;;;5116266;28;20074;-81
2021/05/05 03:34:47;;;;;;;29.15;9.25;;;;;;;;;;5120698;28;20027;-81
2021/05/05 03:37:13;;;;;;;14.15;7.72;;;;;;;;;;5120776;28;20098;-81
2021/05/05 03:39:39;;;;;;;15.15;7.97;;;;;;;;;;5120736;28;20019;-81
2021/05/05 03:42:06;;;;;;;15.90;7.57;;;;;;;;;;5120671;28;20012;-81
2021/05/05 03:44:32;;;;;;;14.82;7.30;;;;;;;;;;5120293;28;20042;-81
2021/05/05 03:46:58;;;;;;;18.90;8.02;;;;;;;;;;5120547;28;20024;-81
2021/05/05 03:49:24;;;;;;;14.65;6.18;;;;;;;;;;5120725;28;20359;-82
2021/05/05 03:51:50;;;;;;;23.85;9.43;;;;;;;;;;5120772;28;20047;-83
2021/05/05 03:54:17;;;;;;;23.10;13.88;;;;;;;;;;5120592;28;20039;-83
2021/05/05 03:56:43;;;;;;;23.02;12.50;;;;;;;;;;5119465;28;20298;-81
2021/05/05 03:59:10;;;;;;;18.73;9.35;;;;;;;;;;5120263;28;20020;-82
2021/05/05 04:01:36;;;;;;;15.48;8.65;;;;;;;;;;5120504;28;20026;-82
2021/05/05 04:04:02;;;;;;;16.38;8.80;;;;;;;;;;5119328;28;20027;-83
2021/05/05 04:06:29;;;;;;;19.95;9.27;;;;;;;;;;5120109;28;20114;-81
2021/05/05 04:08:55;;;;;;;15.93;9.48;;;;;;;;;;5120303;28;20027;-81
2021/05/05 04:11:21;;;;;;;17.77;9.38;;;;;;;;;;5120178;28;20020;-82
2021/05/05 04:13:47;;;;;;;14.02;8.15;;;;;;;;;;5119082;28;20020;-83
2021/05/05 04:16:13;;;;;;;24.05;10.05;;;;;;;;;;5120060;28;20038;-81
2021/05/05 04:18:39;;;;;;;17.38;8.57;;;;;;;;;;5119788;28;20015;-81
2021/05/05 04:21:06;;;;;;;14.10;8.55;;;;;;;;;;5118808;28;20020;-81
2021/05/05 04:23:34;;;;;;;20.83;8.88;;;;;;;;;;5119807;28;20126;-79
2021/05/05 04:26:00;;;;;;;13.77;8.75;;;;;;;;;;5116359;28;20118;-82
2021/05/05 04:28:27;;;;;;;17.65;12.40;;;;;;;;;;5112181;28;20409;-85
2021/05/05 04:30:53;;;;;;;21.17;11.60;;;;;;;;;;5119369;28;20050;-80
2021/05/05 04:33:19;;;;;;;28.33;10.80;;;;;;;;;;5119739;28;20020;-79
2021/05/05 04:35:45;;;;;;;29.23;13.77;;;;;;;;;;5119689;28;20042;-80
2021/05/05 04:38:13;;;;;;;22.02;12.20;;;;;;;;;;5119581;28;20084;-79
2021/05/05 04:40:39;;;;;;;26.55;11.27;;;;;;;;;;5119410;28;20086;-79
2021/05/05 04:43:05;;;;;;;21.58;12.02;;;;;;;;;;5119023;28;20023;-80
2021/05/05 04:45:32;;;;;;;21.17;11.57;;;;;;;;;;5119259;28;20106;-80
2021/05/05 04:47:59;;;;;;;16.65;10.52;;;;;;;;;;5118127;28;20035;-80
2021/05/05 04:50:26;;;;;;;19.60;11.85;;;;;;;;;;5119289;28;20469;-80
2021/05/05 04:52:52;;;;;;;22.92;15.25;;;;;;;;;;5119149;28;20106;-79
2021/05/05 04:55:18;;;;;;;22.55;11.20;;;;;;;;;;5119012;28;20035;-80
2021/05/05 04:57:44;;;;;;;18.80;10.23;;;;;;;;;;5118958;28;20024;-79
2021/05/05 05:00:11;;;;;;;19.65;9.18;;;;;;;;;;5119288;28;20020;-80
2021/05/05 05:02:37;;;;;;;16.05;8.80;;;;;;;;;;5118956;28;20019;-80
2021/05/05 05:05:04;;;;;;;19.38;8.95;;;;;;;;;;5119061;28;20039;-80
2021/05/05 05:07:31;;;;;;;24.70;9.98;;;;;;;;;;5119214;28;20054;-80
2021/05/05 05:09:57;;;;;;;17.52;11.50;;;;;;;;;;5119050;28;20023;-80
2021/05/05 05:12:23;;;;;;;22.73;10.57;;;;;;;;;;5118829;28;20074;-80
2021/05/05 05:14:50;;;;;;;27.38;8.70;;;;;;;;;;5118858;28;20158;-79
2021/05/05 05:17:16;;;;;;;12.63;8.63;;;;;;;;;;5118948;28;20023;-80
2021/05/05 05:19:42;;;;;;;14.93;8.40;;;;;;;;;;5118704;28;20024;-80
2021/05/05 05:22:08;;;;;;;18.25;7.97;;;;;;;;;;5118549;27;20044;-80
2021/05/05 05:24:34;;;;;;;18.13;9.70;;;;;;;;;;5118570;28;20050;-80
2021/05/05 05:27:00;;;;;;;20.10;10.27;;;;;;;;;;5118591;28;20027;-80
2021/05/05 05:29:26;;;;;;;17.88;8.95;;;;;;;;;;5118439;28;20118;-79
2021/05/05 05:31:52;;;;;;;9.38;6.68;;;;;;;;;;5118317;28;20032;-81
2021/05/05 05:34:18;;;;;;;17.33;6.53;;;;;;;;;;5118352;28;20024;-80
2021/05/05 05:36:44;;;;;;;9.48;5.30;;;;;;;;;;5117232;28;20026;-80
2021/05/05 05:39:10;;;;;;;8.35;5.07;;;;;;;;;;5117266;28;20020;-80
2021/05/05 05:41:37;;;;;;;9.32;4.75;;;;;;;;;;5118236;28;20023;-79
2021/05/05 05:44:03;;;;;;;7.55;4.65;;;;;;;;;;5118162;28;20032;-80
2021/05/05 05:46:29;;;;;;;11.93;4.72;;;;;;;;;;5117798;28;20034;-80
2021/05/05 05:48:55;;;;;;;6.97;4.07;;;;;;;;;;5116734;28;20040;-79
2021/05/05 05:51:21;;;;;;;13.63;4.25;;;;;;;;;;5118050;28;20024;-80
2021/05/05 05:53:47;;;;;;;11.40;3.33;;;;;;;;;;5118118;28;20031;-80
2021/05/05 05:56:13;;;;;;;10.70;3.30;;;;;;;;;;5117240;28;20026;-80
2021/05/05 05:58:39;;;;;;;6.88;3.17;;;;;;;;;;5117692;28;20015;-80
2021/05/05 06:01:06;;;;;;;7.70;2.40;;;;;;;;;;5116807;28;20413;-79
2021/05/05 06:03:32;;;;;;;6.18;2.72;;;;;;;;;;5118147;28;20035;-80
2021/05/05 06:05:58;;;;;;;6.18;2.30;;;;;;;;;;5118003;28;20093;-80
2021/05/05 06:08:24;;;;;;;4.00;2.45;;;;;;;;;;5116229;28;20035;-80
2021/05/05 06:10:50;;;;;;;6.68;2.40;;;;;;;;;;5116606;28;20031;-80
2021/05/05 06:13:16;;;;;;;14.52;4.50;;;;;;;;;;5117671;28;20397;-80
2021/05/05 06:15:43;;;;;;;8.75;4.05;;;;;;;;;;5117700;28;20027;-80
2021/05/05 06:18:09;;;;;;;9.23;3.13;;;;;;;;;;5117877;28;20020;-81
2021/05/05 06:20:35;;;;;;;8.10;3.00;;;;;;;;;;5116297;28;20418;-80
2021/05/05 06:23:02;;;;;;;5.93;2.78;;;;;;;;;;5117391;28;20134;-79
2021/05/05 06:25:29;;;;;;;4.60;2.10;;;;;;;;;;5117712;28;20050;-80
2021/05/05 06:27:55;;;;;;;5.00;2.13;;;;;;;;;;5117667;28;20108;-80
2021/05/05 06:30:22;;;;;;;13.90;2.63;;;;;;;;;;5117694;28;20288;-80
2021/05/05 06:32:48;;;;;;;9.43;3.03;;;;;;;;;;5117714;28;20062;-82
2021/05/05 06:35:14;;;;;;;5.32;2.15;;;;;;;;;;5117690;28;20019;-81
2021/05/05 06:37:40;;;;;;;6.82;2.42;;;;;;;;;;5117613;28;20019;-82
2021/05/05 06:40:07;;;;;;;6.07;2.72;;;;;;;;;;5117310;28;20016;-80
2021/05/05 06:42:34;;;;;;;7.07;4.68;;;;;;;;;;5116574;28;20026;-85
2021/05/05 06:45:00;;;;;;;6.93;2.90;;;;;;;;;;5118010;28;20059;-85
2021/05/05 06:47:27;;;;;;;27.08;14.30;;;;;;;;;;5116192;28;20091;-80
2021/05/05 06:49:53;;;;;;;76.68;45.35;;;;;;;;;;5117375;28;20102;-80
2021/05/05 06:52:19;;;;;;;33.40;18.48;;;;;;;;;;5116008;28;20128;-80
2021/05/05 06:54:45;;;;;;;13.02;7.53;;;;;;;;;;5117326;28;20412;-80
2021/05/05 06:57:11;;;;;;;14.80;6.03;;;;;;;;;;5117350;28;20401;-79
2021/05/05 06:59:37;;;;;;;7.70;3.90;;;;;;;;;;5116159;28;20058;-80
2021/05/05 07:02:03;;;;;;;24.00;14.05;;;;;;;;;;5117232;28;20023;-79
2021/05/05 07:04:29;;;;;;;16.27;8.15;;;;;;;;;;5117200;28;20027;-80
2021/05/05 07:06:55;;;;;;;7.32;2.63;;;;;;;;;;5117176;28;20031;-79
2021/05/05 07:09:21;;;;;;;22.95;13.93;;;;;;;;;;5119583;28;20120;-80
2021/05/05 07:11:48;;;;;;;11.85;4.65;;;;;;;;;;5119771;28;20036;-80
2021/05/05 07:14:14;;;;;;;8.80;3.03;;;;;;;;;;5120763;28;20047;-80
2021/05/05 07:16:40;;;;;;;8.75;2.70;;;;;;;;;;5120985;28;20016;-79
2021/05/05 07:19:06;;;;;;;13.60;6.85;;;;;;;;;;5121017;28;20032;-79
2021/05/05 07:21:32;;;;;;;16.63;4.97;;;;;;;;;;5121025;27;20024;-80
2021/05/05 07:23:59;;;;;;;7.60;3.35;;;;;;;;;;5120810;28;20053;-80
2021/05/05 07:26:25;;;;;;;12.32;4.68;;;;;;;;;;5121047;28;20047;-80
2021/05/05 07:28:51;;;;;;;10.30;2.40;;;;;;;;;;5120756;28;20030;-80
2021/05/05 07:31:18;;;;;;;14.18;6.93;;;;;;;;;;5120917;28;20030;-80
2021/05/05 07:33:45;;;;;;;11.68;5.78;;;;;;;;;;5120580;28;20027;-80
2021/05/05 07:36:16;;;;;;;16.88;9.68;;;;;;;;;;5120706;28;20043;-79
2021/05/05 07:41:45;;;;;;;20.08;12.30;;;;;;;;;;5120580;28;20016;-79
2021/05/05 07:49:18;;;;;;;5.28;2.85;;;;;;;;;;5058069;28;20129;-81
2021/05/05 07:51:45;;;;;;;3.97;1.67;;;;;;;;;;5057800;28;20124;-81
2021/05/05 07:54:11;;;;;;;3.47;1.60;;;;;;;;;;5041248;28;20430;-81
2021/05/05 07:56:37;;;;;;;7.68;1.55;;;;;;;;;;5057999;28;20072;-81
2021/05/05 07:59:04;;;;;;;5.75;1.92;;;;;;;;;;5057843;28;20032;-81
2021/05/05 08:01:30;;;;;;;5.65;1.50;;;;;;;;;;5057665;28;20036;-81
2021/05/05 08:03:57;;;;;;;10.25;3.17;;;;;;;;;;5057835;28;20025;-81
2021/05/05 08:06:23;;;;;;;4.13;1.60;;;;;;;;;;5041011;28;20071;-81
2021/05/05 08:08:49;;;;;;;8.65;2.35;;;;;;;;;;5057627;28;20029;-82
2021/05/05 08:11:16;;;;;;;7.72;2.08;;;;;;;;;;5058112;28;20029;-82
2021/05/05 08:13:43;;;;;;;9.00;2.60;;;;;;;;;;5057643;28;20044;-81
2021/05/05 08:16:09;;;;;;;9.07;2.08;;;;;;;;;;5057185;28;20041;-81
2021/05/05 08:18:36;;;;;;;9.07;1.98;;;;;;;;;;5056758;28;20141;-82
2021/05/05 08:21:03;;;;;;;6.35;2.30;;;;;;;;;;5041340;28;20347;-78
2021/05/05 08:23:29;;;;;;;10.02;2.38;;;;;;;;;;5040244;28;20040;-78
2021/05/05 08:25:55;;;;;;;3.45;1.60;;;;;;;;;;5077937;28;20058;-78
2021/05/05 08:28:21;;;;;;;4.45;1.85;;;;;;;;;;5118668;28;20027;-78
2021/05/05 08:30:47;;;;;;;7.60;2.38;;;;;;;;;;5119721;28;20024;-78
2021/05/05 08:33:13;;;;;;;7.75;1.92;;;;;;;;;;5119393;28;20027;-78
2021/05/05 08:35:40;;;;;;;8.57;2.22;;;;;;;;;;5117979;28;20429;-78
2021/05/05 08:38:06;;;;;;;6.07;1.77;;;;;;;;;;5118473;28;20401;-78
2021/05/05 08:40:33;;;;;;;4.20;1.38;;;;;;;;;;5119580;28;20103;-78
2021/05/05 08:42:59;;;;;;;2.33;1.40;;;;;;;;;;5119380;28;20034;-78
2021/05/05 08:45:27;;;;;;;4.20;1.65;;;;;;;;;;5118419;28;20424;-78
2021/05/05 08:47:55;;;;;;;6.70;2.05;;;;;;;;;;5119399;28;20030;-78
2021/05/05 08:50:23;;;;;;;2.40;1.35;;;;;;;;;;5119329;28;20098;-78
2021/05/05 08:52:49;;;;;;;5.75;1.60;;;;;;;;;;5117712;28;20353;-78
2021/05/05 08:55:16;;;;;;;7.55;2.00;;;;;;;;;;5119307;28;20034;-78
2021/05/05 08:57:42;;;;;;;6.25;1.77;;;;;;;;;;5118853;28;20344;-78
2021/05/05 09:00:09;;;;;;;1.58;1.30;;;;;;;;;;5119062;28;20027;-78
2021/05/05 09:02:35;;;;;;;6.03;1.88;;;;;;;;;;5119014;28;20037;-78
2021/05/05 09:05:04;;;;;;;3.35;1.42;;;;;;;;;;5119075;28;20019;-78
2021/05/05 09:07:34;;;;;;;7.65;1.70;;;;;;;;;;5118843;28;20091;-78
2021/05/05 09:10:02;;;;;;;7.25;1.88;;;;;;;;;;5119131;28;20024;-78
2021/05/05 09:12:29;;;;;;;4.15;1.70;;;;;;;;;;5118994;28;20054;-78
2021/05/05 09:14:57;;;;;;;4.07;1.65;;;;;;;;;;5118508;28;20031;-78
2021/05/05 09:17:28;;;;;;;3.22;1.60;;;;;;;;;;5118802;28;20062;-78
2021/05/05 09:20:06;;;;;;;3.27;1.90;;;;;;;;;;5118659;28;20097;-78
2021/05/05 09:22:35;;;;;;;2.83;1.35;;;;;;;;;;5118374;27;20486;-78
2021/05/05 09:25:01;;;;;;;4.82;1.98;;;;;;;;;;5118426;28;20032;-78
2021/05/05 09:27:28;;;;;;;4.05;1.50;;;;;;;;;;5118489;28;20095;-78
2021/05/05 09:29:55;;;;;;;8.90;1.70;;;;;;;;;;5117621;28;20039;-78
2021/05/05 09:32:22;;;;;;;3.58;1.30;;;;;;;;;;5118099;28;20020;-78
2021/05/05 09:34:58;;;;;;;15.27;2.17;;;;;;;;;;5118206;28;20059;-78
2021/05/05 09:37:25;;;;;;;4.95;1.30;;;;;;;;;;5118395;28;20089;-78
2021/05/05 09:39:58;;;;;;;4.10;1.40;;;;;;;;;;5118420;28;20020;-78
2021/05/05 09:42:26;;;;;;;7.25;1.70;;;;;;;;;;5118119;28;20038;-78
2021/05/05 09:44:56;;;;;;;13.20;2.13;;;;;;;;;;5118140;28;20077;-78
2021/05/05 09:47:22;;;;;;;13.68;2.20;;;;;;;;;;5118017;28;20024;-78
2021/05/05 09:49:48;;;;;;;7.57;1.83;;;;;;;;;;5117967;28;20414;-78
2021/05/05 09:52:22;;;;;;;7.38;2.97;;;;;;;;;;5117892;28;20477;-78
2021/05/05 09:54:56;;;;;;;6.20;2.70;;;;;;;;;;5117939;28;20045;-78
2021/05/05 10:08:01;;;;;;;10.70;3.92;;;;;;;;;;5115042;27;20365;-79
2021/05/05 10:10:28;;;;;;;10.30;3.70;;;;;;;;;;5114770;28;20483;-79
2021/05/05 10:12:55;;;;;;;8.05;4.28;;;;;;;;;;5114752;28;20028;-79
2021/05/05 10:15:22;;;;;;;6.50;3.40;;;;;;;;;;5113566;28;20030;-79
2021/05/05 10:17:49;;;;;;;9.27;4.07;;;;;;;;;;5114588;28;20028;-78
2021/05/05 10:20:16;;;;;;;6.97;3.95;;;;;;;;;;5114499;28;20020;-80
2021/05/05 10:22:43;;;;;;;6.53;3.97;;;;;;;;;;5114483;28;20393;-81
2021/05/05 10:25:10;;;;;;;8.88;4.90;;;;;;;;;;5114103;28;20059;-79
2021/05/05 10:27:37;;;;;;;6.70;3.05;;;;;;;;;;5114398;28;20090;-81
2021/05/05 10:30:04;;;;;;;9.85;3.55;;;;;;;;;;5113417;28;20058;-81
2021/05/05 10:32:33;;;;;;;9.48;5.18;;;;;;;;;;5113334;28;20066;-81
2021/05/05 10:34:59;;;;;;;18.85;13.20;;;;;;;;;;5114628;28;20137;-79
2021/05/05 10:37:41;;;;;;;16.33;11.02;;;;;;;;;;5114535;28;20411;-78
2021/05/05 10:40:15;;;;;;;8.93;3.63;;;;;;;;;;5107950;28;20413;-79
2021/05/05 10:42:48;;;;;;;20.15;13.75;;;;;;;;;;5113904;28;20060;-77
2021/05/05 10:45:26;;;;;;;15.32;9.10;;;;;;;;;;5112983;28;20038;-78
2021/05/05 10:48:15;;;;;;;28.90;19.30;;;;;;;;;;5114351;28;20044;-78
2021/05/05 10:50:50;;;;;;;4.15;2.85;;;;;;;;;;5031611;28;20148;-80
2021/05/05 10:53:20;;;;;;;5.25;2.78;;;;;;;;;;5014309;28;20487;-79
2021/05/05 10:55:54;;;;;;;10.25;4.82;;;;;;;;;;5015130;28;20065;-79
2021/05/05 10:58:26;;;;;;;7.72;2.00;;;;;;;;;;5031008;28;20025;-78
2021/05/05 11:00:53;;;;;;;9.82;3.10;;;;;;;;;;5031780;28;20037;-78
2021/05/05 11:03:39;;;;;;;11.95;4.13;;;;;;;;;;5031419;28;20030;-79
2021/05/05 11:06:25;;;;;;;7.70;2.83;;;;;;;;;;5014687;28;20128;-81
2021/05/05 11:08:52;;;;;;;18.27;5.25;;;;;;;;;;5018519;28;20034;-79
2021/05/05 11:11:34;;;;;;;6.53;2.40;;;;;;;;;;5018182;28;20025;-79
2021/05/05 11:14:00;;;;;;;8.82;3.50;;;;;;;;;;5018293;28;20062;-86
2021/05/05 11:16:46;;;;;;;5.63;2.53;;;;;;;;;;5018275;28;20030;-80
2021/05/05 11:19:32;;;;;;;5.28;2.67;;;;;;;;;;5017953;28;20335;-80
2021/05/05 11:21:58;;;;;;;6.22;1.95;;;;;;;;;;5017978;28;20034;-80
2021/05/05 11:24:28;;;;;;;11.13;3.22;;;;;;;;;;5017921;28;20025;-79
2021/05/05 11:26:54;;;;;;;4.80;2.92;;;;;;;;;;5029816;28;20086;-79
2021/05/05 11:29:36;;;;;;;7.13;4.10;;;;;;;;;;5079621;28;20482;-80
2021/05/05 11:32:05;;;;;;;9.40;4.43;;;;;;;;;;5079409;28;20025;-79
2021/05/05 11:34:32;;;;;;;8.52;3.40;;;;;;;;;;5079355;28;20024;-79
2021/05/05 11:36:58;;;;;;;8.88;3.20;;;;;;;;;;5078487;28;20373;-80
2021/05/05 11:39:28;;;;;;;6.10;3.20;;;;;;;;;;5079571;28;20024;-79
2021/05/05 11:41:54;;;;;;;6.28;2.10;;;;;;;;;;5079263;28;20101;-79
2021/05/05 11:44:39;;;;;;;3.10;1.83;;;;;;;;;;5079137;28;20028;-78
2021/05/05 11:47:06;;;;;;;6.90;2.38;;;;;;;;;;5079082;28;20078;-79
2021/05/05 11:49:42;;;;;;;8.02;2.45;;;;;;;;;;5079136;28;20035;-79
2021/05/05 11:52:26;;;;;;;5.15;2.10;;;;;;;;;;5079190;28;20098;-79
2021/05/05 11:54:56;;;;;;;4.15;2.15;;;;;;;;;;5079062;28;20082;-79
2021/05/05 11:57:22;;;;;;;4.32;2.03;;;;;;;;;;5078810;28;20103;-79
2021/05/05 11:59:49;;;;;;;18.30;3.63;;;;;;;;;;5079047;28;20033;-79
2021/05/05 12:02:17;;;;;;;7.60;3.33;;;;;;;;;;5077843;28;20111;-79
2021/05/05 12:04:43;;;;;;;3.90;1.98;;;;;;;;;;5078787;28;20337;-79
2021/05/05 12:07:10;;;;;;;5.15;2.10;;;;;;;;;;5078454;28;20068;-79
2021/05/05 12:09:41;;;;;;;9.23;2.50;;;;;;;;;;5078651;28;20043;-79
2021/05/05 12:12:24;;;;;;;8.27;2.28;;;;;;;;;;5078566;28;20021;-79
2021/05/05 12:14:54;;;;;;;7.40;1.88;;;;;;;;;;5078600;28;20464;-79
2021/05/05 12:20:06;;;;;;;3.85;2.10;;;;;;;;;;5077483;28;20043;-79
2021/05/05 12:22:33;;;;;;;4.97;2.22;;;;;;;;;;5078638;28;20032;-79
2021/05/05 12:25:06;;;;;;;7.65;2.50;;;;;;;;;;5077584;28;20039;-79
2021/05/05 12:27:33;;;;;;;4.97;2.20;;;;;;;;;;5077126;28;20480;-79
2021/05/05 12:30:00;;;;;;;4.18;1.92;;;;;;;;;;5078339;28;20024;-79
2021/05/05 12:33:01;;;;;;;5.53;2.25;;;;;;;;;;5095251;28;20061;-79
2021/05/05 12:35:27;;;;;;;3.80;1.58;;;;;;;;;;5056256;28;20033;-79
2021/05/05 12:37:55;;;;;;;11.43;1.77;;;;;;;;;;5056277;28;20051;-79
2021/05/05 12:40:25;;;;;;;6.00;1.75;;;;;;;;;;5056428;28;20375;-79
2021/05/05 12:42:51;;;;;;;2.72;1.60;;;;;;;;;;5055937;28;20064;-79
2021/05/05 12:45:17;;;;;;;4.35;1.67;;;;;;;;;;5056052;28;20025;-79
2021/05/05 12:47:44;;;;;;;8.57;1.58;;;;;;;;;;5056033;28;20066;-79
2021/05/05 12:50:13;;;;;;;2.95;1.48;;;;;;;;;;5055953;28;20039;-79
2021/05/05 12:52:40;;;;;;;2.55;1.50;;;;;;;;;;5056096;28;20021;-78
2021/05/05 12:55:23;;;;;;;3.42;1.88;;;;;;;;;;5056037;28;20021;-77
2021/05/05 12:58:08;;;;;;;6.10;1.88;;;;;;;;;;5039174;28;20315;-77
2021/05/05 13:00:35;;;;;;;2.80;1.48;;;;;;;;;;5055781;28;20044;-77
2021/05/05 13:03:08;;;;;;;9.63;1.75;;;;;;;;;;5055679;28;20037;-77
2021/05/05 13:05:53;;;;;;;4.07;1.70;;;;;;;;;;5055446;28;20037;-77
2021/05/05 13:08:27;;;;;;;6.13;1.80;;;;;;;;;;5057812;28;20558;-77
2021/05/05 13:10:54;;;;;;;5.82;2.20;;;;;;;;;;5097938;28;20018;-77
2021/05/05 13:13:25;;;;;;;4.15;2.00;;;;;;;;;;5096886;28;20449;-76
2021/05/05 13:32:30;;;;;;;2.80;1.70;;;;;;;;;;5097514;28;20295;-77
2021/05/05 13:34:56;;;;;;;5.72;1.63;;;;;;;;;;5097484;28;20016;-77
2021/05/05 13:37:22;;;;;;;3.00;1.73;;;;;;;;;;5096158;28;20028;-76
2021/05/05 13:39:48;;;;;;;1.75;1.30;;;;;;;;;;5096168;28;20024;-77
2021/05/05 13:42:14;;;;;;;4.80;1.70;;;;;;;;;;5097522;28;20290;-77
2021/05/05 13:44:54;;;;;;;5.50;2.20;;;;;;;;;;5097244;28;20024;-77
2021/05/05 13:47:31;;;;;;;6.22;1.83;;;;;;;;;;5097122;28;20417;-76
2021/05/05 13:49:58;;;;;;;5.68;1.73;;;;;;;;;;5097194;28;20107;-77
2021/05/05 13:52:25;;;;;;;7.25;3.42;;;;;;;;;;5097065;28;20038;-76
2021/05/05 13:54:51;;;;;;;4.95;2.58;;;;;;;;;;5097352;28;20043;-77
2021/05/05 13:57:17;;;;;;;9.57;2.22;;;;;;;;;;5097242;28;20027;-76
2021/05/05 13:59:43;;;;;;;6.85;2.05;;;;;;;;;;5097139;28;20028;-76
2021/05/05 14:02:10;;;;;;;4.43;1.55;;;;;;;;;;5097088;28;20027;-76
2021/05/05 14:04:37;;;;;;;9.50;1.95;;;;;;;;;;5097128;28;20028;-76
2021/05/05 14:07:05;;;;;;;3.72;1.65;;;;;;;;;;5096824;28;20087;-76
2021/05/05 14:09:31;;;;;;;5.88;1.67;;;;;;;;;;5097238;28;20024;-76
2021/05/05 14:11:57;;;;;;;3.17;1.30;;;;;;;;;;5097049;28;20031;-76
2021/05/05 14:14:23;;;;;;;5.20;1.92;;;;;;;;;;5097009;28;20356;-76
2021/05/05 14:16:50;;;;;;;4.75;1.50;;;;;;;;;;5095809;28;20054;-76
2021/05/05 14:19:16;;;;;;;4.13;1.50;;;;;;;;;;5097085;28;20028;-76
2021/05/05 14:21:43;;;;;;;11.27;1.33;;;;;;;;;;5096171;28;20061;-75
2021/05/05 14:24:11;;;;;;;7.35;1.60;;;;;;;;;;5096864;28;20493;-76
2021/05/05 14:26:38;;;;;;;4.03;1.33;;;;;;;;;;5095661;28;20039;-76
2021/05/05 14:29:04;;;;;;;11.82;1.75;;;;;;;;;;5096722;28;20031;-78
2021/05/05 14:31:30;;;;;;;4.57;2.63;;;;;;;;;;5096868;28;20321;-79
2021/05/05 14:33:56;;;;;;;13.20;8.13;;;;;;;;;;5096917;28;20077;-80
2021/05/05 14:36:22;;;;;;;6.00;3.83;;;;;;;;;;5097418;28;20035;-92
2021/05/05 14:38:49;;;;;;;4.25;1.65;;;;;;;;;;5097656;28;20050;-90
2021/05/05 14:41:27;;;;;;;7.43;2.15;;;;;;;;;;5095965;28;20024;-85
2021/05/05 14:44:18;;;;;;;4.97;1.90;;;;;;;;;;5100027;28;20070;-84
2021/05/05 14:49:10;;;;;;;11.27;6.03;;;;;;;;;;5100892;28;20069;-84
2021/05/05 14:51:36;;;;;;;8.75;3.42;;;;;;;;;;5100767;28;20020;-84
2021/05/05 14:54:03;;;;;;;8.15;2.40;;;;;;;;;;5100517;28;20053;-84
2021/05/05 14:56:29;;;;;;;5.07;1.85;;;;;;;;;;5100648;28;20028;-84
2021/05/05 14:59:00;;;;;;;10.10;3.53;;;;;;;;;;5099499;28;20115;-84
2021/05/05 15:01:26;;;;;;;9.98;4.22;;;;;;;;;;5100596;28;20061;-84
2021/05/05 15:03:53;;;;;;;4.82;2.15;;;;;;;;;;5100240;28;20067;-84
2021/05/05 15:06:35;;;;;;;4.00;2.05;;;;;;;;;;5099145;28;20059;-84
2021/05/05 15:12:12;;;;;;;6.50;1.90;;;;;;;;;;5100329;28;20020;-84
2021/05/05 15:36:15;;;;;;;8.50;1.98;;;;;;;;;;5077301;28;20048;-81
2021/05/05 15:38:53;;;;;;;7.68;1.80;;;;;;;;;;5077491;28;20127;-82
2021/05/05 15:41:27;;;;;;;6.40;2.35;;;;;;;;;;5077345;28;20047;-82
2021/05/05 15:44:14;;;;;;;6.53;2.50;;;;;;;;;;5077405;28;20021;-82
2021/05/05 15:49:29;;;;;;;6.38;2.35;;;;;;;;;;5077774;28;20471;-82